sensor_id;sensor_type;location;lat;lon;timestamp;temperature;humidity
5466;DHT22;2755;50.728;7.108;2023-02-01T00:04:20;5.70;99.90
5466;DHT22;2755;50.728;7.108;2023-02-01T00:06:45;5.60;99.90
5466;DHT22;2755;50.728;7.108;2023-02-01T00:09:11;5.40;99.90
5466;DHT22;2755;50.728;7.108;2023-02-01T00:14:03;5.50;99.90
5466;DHT22;2755;50.728;7.108;2023-02-01T00:16:30;5.20;99.90
5466;DHT22;2755;50.728;7.108;2023-02-01T00:19:16;6.00;99.90
5466;DHT22;2755;50.728;7.108;2023-02-01T00:21:42;5.10;99.90
5466;DHT22;2755;50.728;7.108;2023-02-01T00:24:09;5.10;99.90
5466;DHT22;2755;50.728;7.108;2023-02-01T00:26:37;5.10;99.90
5466;DHT22;2755;50.728;7.108;2023-02-01T00:29:06;5.10;99.90
5466;DHT22;2755;50.728;7.108;2023-02-01T00:31:32;5.50;99.90
5466;DHT22;2755;50.728;7.108;2023-02-01T00:38:50;4.90;99.90
5466;DHT22;2755;50.728;7.108;2023-02-01T00:41:18;4.60;99.90
5466;DHT22;2755;50.728;7.108;2023-02-01T00:43:44;5.30;99.90
5466;DHT22;2755;50.728;7.108;2023-02-01T00:46:11;5.20;99.90
5466;DHT22;2755;50.728;7.108;2023-02-01T00:48:37;5.40;99.90
5466;DHT22;2755;50.728;7.108;2023-02-01T00:51:07;6.00;99.90
5466;DHT22;2755;50.728;7.108;2023-02-01T00:53:32;5.10;99.90
5466;DHT22;2755;50.728;7.108;2023-02-01T00:55:59;5.40;99.90
5466;DHT22;2755;50.728;7.108;2023-02-01T00:58:25;5.70;99.90
5466;DHT22;2755;50.728;7.108;2023-02-01T01:03:38;5.50;99.90
5466;DHT22;2755;50.728;7.108;2023-02-01T01:06:07;5.60;99.90
5466;DHT22;2755;50.728;7.108;2023-02-01T01:08:34;6.10;99.90
5466;DHT22;2755;50.728;7.108;2023-02-01T01:11:05;5.40;99.90
5466;DHT22;2755;50.728;7.108;2023-02-01T01:13:32;5.20;99.90
5466;DHT22;2755;50.728;7.108;2023-02-01T01:16:01;5.20;99.90
5466;DHT22;2755;50.728;7.108;2023-02-01T01:18:28;5.80;99.90
5466;DHT22;2755;50.728;7.108;2023-02-01T01:20:54;5.60;99.90
5466;DHT22;2755;50.728;7.108;2023-02-01T01:23:20;5.70;99.90
5466;DHT22;2755;50.728;7.108;2023-02-01T01:25:45;5.60;99.90
5466;DHT22;2755;50.728;7.108;2023-02-01T01:30:37;5.50;99.90
5466;DHT22;2755;50.728;7.108;2023-02-01T01:33:02;5.40;99.90
5466;DHT22;2755;50.728;7.108;2023-02-01T01:35:32;5.70;99.90
5466;DHT22;2755;50.728;7.108;2023-02-01T01:37:58;6.30;99.90
5466;DHT22;2755;50.728;7.108;2023-02-01T01:40:25;5.80;99.90
5466;DHT22;2755;50.728;7.108;2023-02-01T01:42:51;5.50;99.90
5466;DHT22;2755;50.728;7.108;2023-02-01T01:45:31;5.90;99.90
5466;DHT22;2755;50.728;7.108;2023-02-01T01:48:25;5.60;99.90
5466;DHT22;2755;50.728;7.108;2023-02-01T01:51:06;5.50;99.90
5466;DHT22;2755;50.728;7.108;2023-02-01T01:53:43;6.00;99.90
5466;DHT22;2755;50.728;7.108;2023-02-01T01:56:11;5.80;99.90
5466;DHT22;2755;50.728;7.108;2023-02-01T01:58:37;6.20;99.90
5466;DHT22;2755;50.728;7.108;2023-02-01T02:01:02;6.20;99.90
5466;DHT22;2755;50.728;7.108;2023-02-01T02:03:35;5.90;99.90
5466;DHT22;2755;50.728;7.108;2023-02-01T02:06:03;6.30;99.90
5466;DHT22;2755;50.728;7.108;2023-02-01T02:08:30;6.00;99.90
5466;DHT22;2755;50.728;7.108;2023-02-01T02:10:56;6.00;99.90
5466;DHT22;2755;50.728;7.108;2023-02-01T02:13:37;5.70;99.90
5466;DHT22;2755;50.728;7.108;2023-02-01T02:16:24;5.90;99.90
5466;DHT22;2755;50.728;7.108;2023-02-01T02:19:23;5.90;99.90
5466;DHT22;2755;50.728;7.108;2023-02-01T02:28:05;5.70;99.90
5466;DHT22;2755;50.728;7.108;2023-02-01T02:38:51;6.00;99.90
5466;DHT22;2755;50.728;7.108;2023-02-01T02:41:26;6.10;99.90
5466;DHT22;2755;50.728;7.108;2023-02-01T02:44:42;6.10;99.90
5466;DHT22;2755;50.728;7.108;2023-02-01T02:47:59;6.60;99.90
5466;DHT22;2755;50.728;7.108;2023-02-01T02:50:36;6.10;99.90
5466;DHT22;2755;50.728;7.108;2023-02-01T02:53:30;5.90;99.90
5466;DHT22;2755;50.728;7.108;2023-02-01T02:56:18;6.30;99.90
5466;DHT22;2755;50.728;7.108;2023-02-01T02:59:03;6.20;99.90
5466;DHT22;2755;50.728;7.108;2023-02-01T03:01:48;6.10;99.90
5466;DHT22;2755;50.728;7.108;2023-02-01T03:04:33;6.00;99.90
5466;DHT22;2755;50.728;7.108;2023-02-01T03:07:12;5.90;99.90
5466;DHT22;2755;50.728;7.108;2023-02-01T03:09:39;6.00;99.90
5466;DHT22;2755;50.728;7.108;2023-02-01T03:12:10;6.30;99.90
5466;DHT22;2755;50.728;7.108;2023-02-01T03:15:03;6.10;99.90
5466;DHT22;2755;50.728;7.108;2023-02-01T03:17:35;6.20;99.90
5466;DHT22;2755;50.728;7.108;2023-02-01T03:20:04;5.80;99.90
5466;DHT22;2755;50.728;7.108;2023-02-01T03:22:32;6.00;99.90
5466;DHT22;2755;50.728;7.108;2023-02-01T03:25:16;6.10;99.90
5466;DHT22;2755;50.728;7.108;2023-02-01T03:27:49;5.90;99.90
5466;DHT22;2755;50.728;7.108;2023-02-01T03:30:33;5.90;99.90
5466;DHT22;2755;50.728;7.108;2023-02-01T03:33:02;5.60;99.90
5466;DHT22;2755;50.728;7.108;2023-02-01T03:35:39;5.90;99.90
5466;DHT22;2755;50.728;7.108;2023-02-01T03:46:17;6.40;99.90
5466;DHT22;2755;50.728;7.108;2023-02-01T03:51:10;6.00;99.90
5466;DHT22;2755;50.728;7.108;2023-02-01T03:53:38;7.20;99.90
5466;DHT22;2755;50.728;7.108;2023-02-01T03:56:05;6.30;99.90
5466;DHT22;2755;50.728;7.108;2023-02-01T03:58:31;5.90;99.90
5466;DHT22;2755;50.728;7.108;2023-02-01T04:00:58;6.10;99.90
5466;DHT22;2755;50.728;7.108;2023-02-01T04:03:26;6.30;99.90
5466;DHT22;2755;50.728;7.108;2023-02-01T04:05:53;6.20;99.90
5466;DHT22;2755;50.728;7.108;2023-02-01T04:08:22;6.40;99.90
5466;DHT22;2755;50.728;7.108;2023-02-01T04:10:48;6.20;99.90
5466;DHT22;2755;50.728;7.108;2023-02-01T04:13:14;6.00;99.90
5466;DHT22;2755;50.728;7.108;2023-02-01T04:15:39;6.00;99.90
5466;DHT22;2755;50.728;7.108;2023-02-01T04:18:05;5.90;99.90
5466;DHT22;2755;50.728;7.108;2023-02-01T04:22:57;5.90;99.90
5466;DHT22;2755;50.728;7.108;2023-02-01T04:25:23;5.90;99.90
5466;DHT22;2755;50.728;7.108;2023-02-01T04:27:49;5.90;99.90
5466;DHT22;2755;50.728;7.108;2023-02-01T04:30:15;5.80;99.90
5466;DHT22;2755;50.728;7.108;2023-02-01T04:32:41;6.50;99.90
5466;DHT22;2755;50.728;7.108;2023-02-01T04:35:07;6.30;99.90
5466;DHT22;2755;50.728;7.108;2023-02-01T04:37:33;5.90;99.90
5466;DHT22;2755;50.728;7.108;2023-02-01T04:39:59;6.40;99.90
5466;DHT22;2755;50.728;7.108;2023-02-01T04:42:25;5.70;99.90
5466;DHT22;2755;50.728;7.108;2023-02-01T04:44:50;5.50;99.90
5466;DHT22;2755;50.728;7.108;2023-02-01T04:47:16;5.60;99.90
5466;DHT22;2755;50.728;7.108;2023-02-01T04:49:42;5.60;99.90
5466;DHT22;2755;50.728;7.108;2023-02-01T04:52:08;5.60;99.90
5466;DHT22;2755;50.728;7.108;2023-02-01T04:54:33;5.60;99.90
5466;DHT22;2755;50.728;7.108;2023-02-01T04:59:25;5.50;99.90
5466;DHT22;2755;50.728;7.108;2023-02-01T05:01:51;5.70;99.90
5466;DHT22;2755;50.728;7.108;2023-02-01T05:04:16;5.70;99.90
5466;DHT22;2755;50.728;7.108;2023-02-01T05:06:44;5.70;99.90
5466;DHT22;2755;50.728;7.108;2023-02-01T05:09:10;6.00;99.90
5466;DHT22;2755;50.728;7.108;2023-02-01T05:11:36;5.50;99.90
5466;DHT22;2755;50.728;7.108;2023-02-01T05:14:20;5.60;99.90
5466;DHT22;2755;50.728;7.108;2023-02-01T05:16:46;5.70;99.90
5466;DHT22;2755;50.728;7.108;2023-02-01T05:19:11;5.40;99.90
5466;DHT22;2755;50.728;7.108;2023-02-01T05:24:04;5.50;99.90
5466;DHT22;2755;50.728;7.108;2023-02-01T05:26:37;5.40;99.90
5466;DHT22;2755;50.728;7.108;2023-02-01T05:29:04;5.20;99.90
5466;DHT22;2755;50.728;7.108;2023-02-01T05:31:29;5.90;99.90
5466;DHT22;2755;50.728;7.108;2023-02-01T05:33:55;5.30;99.90
5466;DHT22;2755;50.728;7.108;2023-02-01T05:38:47;5.40;99.90
5466;DHT22;2755;50.728;7.108;2023-02-01T05:41:12;5.40;99.90
5466;DHT22;2755;50.728;7.108;2023-02-01T05:43:38;4.70;99.90
5466;DHT22;2755;50.728;7.108;2023-02-01T05:46:03;4.40;99.90
5466;DHT22;2755;50.728;7.108;2023-02-01T05:48:29;5.80;99.90
5466;DHT22;2755;50.728;7.108;2023-02-01T05:50:55;5.40;99.90
5466;DHT22;2755;50.728;7.108;2023-02-01T05:55:46;4.80;99.90
5466;DHT22;2755;50.728;7.108;2023-02-01T06:00:38;5.30;99.90
5466;DHT22;2755;50.728;7.108;2023-02-01T06:03:04;5.40;99.90
5466;DHT22;2755;50.728;7.108;2023-02-01T06:05:30;4.20;99.90
5466;DHT22;2755;50.728;7.108;2023-02-01T06:07:55;5.30;99.90
5466;DHT22;2755;50.728;7.108;2023-02-01T06:10:21;5.30;99.90
5466;DHT22;2755;50.728;7.108;2023-02-01T06:12:47;4.80;99.90
5466;DHT22;2755;50.728;7.108;2023-02-01T06:15:13;4.90;99.90
5466;DHT22;2755;50.728;7.108;2023-02-01T06:17:41;4.70;99.90
5466;DHT22;2755;50.728;7.108;2023-02-01T06:20:09;5.00;99.90
5466;DHT22;2755;50.728;7.108;2023-02-01T06:22:36;4.40;99.90
5466;DHT22;2755;50.728;7.108;2023-02-01T06:25:08;4.80;99.90
5466;DHT22;2755;50.728;7.108;2023-02-01T06:27:34;4.90;99.90
5466;DHT22;2755;50.728;7.108;2023-02-01T06:37:19;5.30;99.90
5466;DHT22;2755;50.728;7.108;2023-02-01T06:39:44;4.80;99.90
5466;DHT22;2755;50.728;7.108;2023-02-01T06:42:10;4.80;99.90
5466;DHT22;2755;50.728;7.108;2023-02-01T06:44:36;4.80;99.90
5466;DHT22;2755;50.728;7.108;2023-02-01T06:47:03;4.70;99.90
5466;DHT22;2755;50.728;7.108;2023-02-01T06:49:28;4.40;99.90
5466;DHT22;2755;50.728;7.108;2023-02-01T06:54:20;4.50;99.90
5466;DHT22;2755;50.728;7.108;2023-02-01T06:56:45;5.10;99.90
5466;DHT22;2755;50.728;7.108;2023-02-01T06:59:11;5.00;99.90
5466;DHT22;2755;50.728;7.108;2023-02-01T07:01:38;5.30;99.90
5466;DHT22;2755;50.728;7.108;2023-02-01T07:04:04;5.40;99.90
5466;DHT22;2755;50.728;7.108;2023-02-01T07:06:30;5.20;99.90
5466;DHT22;2755;50.728;7.108;2023-02-01T07:08:56;5.20;99.90
5466;DHT22;2755;50.728;7.108;2023-02-01T07:11:22;5.80;99.90
5466;DHT22;2755;50.728;7.108;2023-02-01T07:13:48;6.10;99.90
5466;DHT22;2755;50.728;7.108;2023-02-01T07:16:17;5.30;99.90
5466;DHT22;2755;50.728;7.108;2023-02-01T07:18:43;5.10;99.90
5466;DHT22;2755;50.728;7.108;2023-02-01T07:23:35;5.00;99.90
5466;DHT22;2755;50.728;7.108;2023-02-01T07:26:03;5.30;99.90
5466;DHT22;2755;50.728;7.108;2023-02-01T07:28:30;5.20;99.90
5466;DHT22;2755;50.728;7.108;2023-02-01T07:31:05;5.30;99.90
5466;DHT22;2755;50.728;7.108;2023-02-01T07:33:32;5.00;99.90
5466;DHT22;2755;50.728;7.108;2023-02-01T07:36:01;5.40;99.90
5466;DHT22;2755;50.728;7.108;2023-02-01T07:38:27;5.30;99.90
5466;DHT22;2755;50.728;7.108;2023-02-01T07:41:00;5.80;99.90
5466;DHT22;2755;50.728;7.108;2023-02-01T07:43:27;5.90;99.90
5466;DHT22;2755;50.728;7.108;2023-02-01T07:45:56;4.40;99.90
5466;DHT22;2755;50.728;7.108;2023-02-01T07:48:23;5.40;99.90
5466;DHT22;2755;50.728;7.108;2023-02-01T07:51:15;5.50;99.90
5466;DHT22;2755;50.728;7.108;2023-02-01T07:53:41;5.50;99.90
5466;DHT22;2755;50.728;7.108;2023-02-01T07:56:14;5.60;99.90
5466;DHT22;2755;50.728;7.108;2023-02-01T07:58:39;6.00;99.90
5466;DHT22;2755;50.728;7.108;2023-02-01T08:01:05;5.70;99.90
5466;DHT22;2755;50.728;7.108;2023-02-01T08:03:47;5.40;99.90
5466;DHT22;2755;50.728;7.108;2023-02-01T08:08:39;5.60;99.90
5466;DHT22;2755;50.728;7.108;2023-02-01T08:11:06;5.80;99.90
5466;DHT22;2755;50.728;7.108;2023-02-01T08:13:33;5.80;99.90
5466;DHT22;2755;50.728;7.108;2023-02-01T08:16:01;6.00;99.90
5466;DHT22;2755;50.728;7.108;2023-02-01T08:18:27;6.20;99.90
5466;DHT22;2755;50.728;7.108;2023-02-01T08:23:19;5.60;99.90
5466;DHT22;2755;50.728;7.108;2023-02-01T08:28:10;6.00;99.90
5466;DHT22;2755;50.728;7.108;2023-02-01T08:30:37;6.20;99.90
5466;DHT22;2755;50.728;7.108;2023-02-01T08:33:04;6.20;99.90
5466;DHT22;2755;50.728;7.108;2023-02-01T08:35:31;6.00;99.90
5466;DHT22;2755;50.728;7.108;2023-02-01T08:37:57;6.40;99.90
5466;DHT22;2755;50.728;7.108;2023-02-01T08:42:48;6.20;99.90
5466;DHT22;2755;50.728;7.108;2023-02-01T08:45:22;6.40;99.90
5466;DHT22;2755;50.728;7.108;2023-02-01T08:47:50;6.40;99.90
5466;DHT22;2755;50.728;7.108;2023-02-01T08:50:16;6.30;99.90
5466;DHT22;2755;50.728;7.108;2023-02-01T08:52:42;6.70;99.90
5466;DHT22;2755;50.728;7.108;2023-02-01T08:55:08;6.40;99.90
5466;DHT22;2755;50.728;7.108;2023-02-01T08:57:34;6.40;99.90
5466;DHT22;2755;50.728;7.108;2023-02-01T09:00:00;6.00;99.90
5466;DHT22;2755;50.728;7.108;2023-02-01T09:02:26;7.30;99.90
5466;DHT22;2755;50.728;7.108;2023-02-01T09:12:11;6.90;99.90
5466;DHT22;2755;50.728;7.108;2023-02-01T09:14:37;6.60;99.90
5466;DHT22;2755;50.728;7.108;2023-02-01T09:17:02;6.30;99.80
5466;DHT22;2755;50.728;7.108;2023-02-01T09:19:28;6.10;99.90
5466;DHT22;2755;50.728;7.108;2023-02-01T09:21:54;7.00;99.90
5466;DHT22;2755;50.728;7.108;2023-02-01T09:24:19;7.00;99.80
5466;DHT22;2755;50.728;7.108;2023-02-01T09:31:38;7.20;99.10
5466;DHT22;2755;50.728;7.108;2023-02-01T09:34:04;7.80;99.90
5466;DHT22;2755;50.728;7.108;2023-02-01T09:36:30;8.00;98.70
5466;DHT22;2755;50.728;7.108;2023-02-01T09:38:55;7.30;97.80
5466;DHT22;2755;50.728;7.108;2023-02-01T09:44:24;7.30;97.60
5466;DHT22;2755;50.728;7.108;2023-02-01T09:49:30;7.80;98.50
5466;DHT22;2755;50.728;7.108;2023-02-01T09:51:57;6.60;98.60
5466;DHT22;2755;50.728;7.108;2023-02-01T09:54:26;7.20;99.70
5466;DHT22;2755;50.728;7.108;2023-02-01T09:59:23;7.80;99.70
5466;DHT22;2755;50.728;7.108;2023-02-01T10:01:50;7.60;99.20
5466;DHT22;2755;50.728;7.108;2023-02-01T10:04:17;7.30;98.10
5466;DHT22;2755;50.728;7.108;2023-02-01T10:10:04;7.60;98.00
5466;DHT22;2755;50.728;7.108;2023-02-01T10:15:28;7.60;97.70
5466;DHT22;2755;50.728;7.108;2023-02-01T10:21:05;7.70;97.00
5466;DHT22;2755;50.728;7.108;2023-02-01T10:26:18;8.00;95.60
5466;DHT22;2755;50.728;7.108;2023-02-01T10:28:48;7.80;95.60
5466;DHT22;2755;50.728;7.108;2023-02-01T10:31:15;8.00;94.50
5466;DHT22;2755;50.728;7.108;2023-02-01T10:33:50;8.30;95.60
5466;DHT22;2755;50.728;7.108;2023-02-01T10:36:24;8.40;93.50
5466;DHT22;2755;50.728;7.108;2023-02-01T10:38:51;8.40;94.20
5466;DHT22;2755;50.728;7.108;2023-02-01T10:41:22;8.80;94.90
5466;DHT22;2755;50.728;7.108;2023-02-01T10:43:53;7.60;90.20
5466;DHT22;2755;50.728;7.108;2023-02-01T10:46:20;8.80;92.90
5466;DHT22;2755;50.728;7.108;2023-02-01T10:48:49;9.10;91.10
5466;DHT22;2755;50.728;7.108;2023-02-01T10:51:30;9.70;88.20
5466;DHT22;2755;50.728;7.108;2023-02-01T10:54:14;9.70;82.40
5466;DHT22;2755;50.728;7.108;2023-02-01T10:56:44;9.80;83.30
5466;DHT22;2755;50.728;7.108;2023-02-01T10:59:19;10.20;79.10
5466;DHT22;2755;50.728;7.108;2023-02-01T11:01:47;10.30;78.20
5466;DHT22;2755;50.728;7.108;2023-02-01T11:04:18;10.50;76.50
5466;DHT22;2755;50.728;7.108;2023-02-01T11:06:47;10.40;74.50
5466;DHT22;2755;50.728;7.108;2023-02-01T11:09:22;10.50;75.80
5466;DHT22;2755;50.728;7.108;2023-02-01T11:17:02;9.60;79.60
5466;DHT22;2755;50.728;7.108;2023-02-01T11:22:03;8.80;76.90
5466;DHT22;2755;50.728;7.108;2023-02-01T11:24:31;9.50;80.70
5466;DHT22;2755;50.728;7.108;2023-02-01T11:27:00;9.50;78.70
5466;DHT22;2755;50.728;7.108;2023-02-01T11:29:31;9.50;79.30
5466;DHT22;2755;50.728;7.108;2023-02-01T11:31:59;9.10;78.10
5466;DHT22;2755;50.728;7.108;2023-02-01T11:34:32;8.90;78.40
5466;DHT22;2755;50.728;7.108;2023-02-01T11:37:00;8.90;79.90
5466;DHT22;2755;50.728;7.108;2023-02-01T11:39:33;8.90;80.70
5466;DHT22;2755;50.728;7.108;2023-02-01T11:42:04;9.00;81.80
5466;DHT22;2755;50.728;7.108;2023-02-01T11:49:51;9.10;80.70
5466;DHT22;2755;50.728;7.108;2023-02-01T11:58:46;8.90;76.40
5466;DHT22;2755;50.728;7.108;2023-02-01T12:14:40;8.60;79.10
5466;DHT22;2755;50.728;7.108;2023-02-01T12:46:44;8.30;83.00
5466;DHT22;2755;50.728;7.108;2023-02-01T12:49:20;8.50;83.60
5466;DHT22;2755;50.728;7.108;2023-02-01T12:51:54;8.40;81.30
5466;DHT22;2755;50.728;7.108;2023-02-01T12:54:37;8.40;81.20
5466;DHT22;2755;50.728;7.108;2023-02-01T12:57:12;8.40;81.30
5466;DHT22;2755;50.728;7.108;2023-02-01T12:59:47;8.60;82.40
5466;DHT22;2755;50.728;7.108;2023-02-01T13:05:34;8.40;81.80
5466;DHT22;2755;50.728;7.108;2023-02-01T13:08:12;8.40;80.70
5466;DHT22;2755;50.728;7.108;2023-02-01T13:10:48;8.40;81.20
5466;DHT22;2755;50.728;7.108;2023-02-01T13:16:42;8.40;80.00
5466;DHT22;2755;50.728;7.108;2023-02-01T13:21:46;9.40;80.70
5466;DHT22;2755;50.728;7.108;2023-02-01T13:24:36;8.40;80.60
5466;DHT22;2755;50.728;7.108;2023-02-01T13:29:29;7.90;84.90
5466;DHT22;2755;50.728;7.108;2023-02-01T13:34:40;8.20;82.00
5466;DHT22;2755;50.728;7.108;2023-02-01T13:43:10;8.10;87.30
5466;DHT22;2755;50.728;7.108;2023-02-01T13:45:43;8.00;89.10
5466;DHT22;2755;50.728;7.108;2023-02-01T13:48:20;7.90;90.90
5466;DHT22;2755;50.728;7.108;2023-02-01T13:50:52;7.60;92.40
5466;DHT22;2755;50.728;7.108;2023-02-01T13:53:25;7.70;94.50
5466;DHT22;2755;50.728;7.108;2023-02-01T13:56:03;7.60;98.30
5466;DHT22;2755;50.728;7.108;2023-02-01T13:58:34;7.50;99.00
5466;DHT22;2755;50.728;7.108;2023-02-01T14:06:38;7.40;97.60
5466;DHT22;2755;50.728;7.108;2023-02-01T14:11:39;7.50;97.10
5466;DHT22;2755;50.728;7.108;2023-02-01T14:16:41;7.60;96.00
5466;DHT22;2755;50.728;7.108;2023-02-01T14:19:32;7.60;95.50
5466;DHT22;2755;50.728;7.108;2023-02-01T14:24:41;7.70;94.60
5466;DHT22;2755;50.728;7.108;2023-02-01T14:29:49;8.00;94.10
5466;DHT22;2755;50.728;7.108;2023-02-01T14:32:21;8.60;94.10
5466;DHT22;2755;50.728;7.108;2023-02-01T14:47:28;8.10;91.80
5466;DHT22;2755;50.728;7.108;2023-02-01T14:55:54;8.20;91.20
5466;DHT22;2755;50.728;7.108;2023-02-01T15:01:15;8.30;90.80
5466;DHT22;2755;50.728;7.108;2023-02-01T15:03:50;8.30;90.80
5466;DHT22;2755;50.728;7.108;2023-02-01T15:06:35;8.10;90.70
5466;DHT22;2755;50.728;7.108;2023-02-01T15:09:25;8.10;91.90
5466;DHT22;2755;50.728;7.108;2023-02-01T15:12:04;7.70;91.90
5466;DHT22;2755;50.728;7.108;2023-02-01T15:14:35;8.40;90.00
5466;DHT22;2755;50.728;7.108;2023-02-01T15:17:03;8.50;92.00
5466;DHT22;2755;50.728;7.108;2023-02-01T15:19:58;8.30;88.90
5466;DHT22;2755;50.728;7.108;2023-02-01T15:22:28;8.30;89.40
5466;DHT22;2755;50.728;7.108;2023-02-01T15:24:59;7.90;91.40
5466;DHT22;2755;50.728;7.108;2023-02-01T15:27:26;9.00;91.30
5466;DHT22;2755;50.728;7.108;2023-02-01T15:29:52;8.40;89.50
5466;DHT22;2755;50.728;7.108;2023-02-01T15:32:32;8.20;91.00
5466;DHT22;2755;50.728;7.108;2023-02-01T15:34:58;8.00;89.60
5466;DHT22;2755;50.728;7.108;2023-02-01T15:37:26;8.50;90.00
5466;DHT22;2755;50.728;7.108;2023-02-01T15:42:54;8.20;89.30
5466;DHT22;2755;50.728;7.108;2023-02-01T15:45:25;8.20;91.40
5466;DHT22;2755;50.728;7.108;2023-02-01T15:47:54;8.30;90.00
5466;DHT22;2755;50.728;7.108;2023-02-01T15:50:21;8.30;90.50
5466;DHT22;2755;50.728;7.108;2023-02-01T15:52:50;7.90;91.40
5466;DHT22;2755;50.728;7.108;2023-02-01T16:00:27;8.10;96.70
5466;DHT22;2755;50.728;7.108;2023-02-01T16:03:04;7.50;99.90
5466;DHT22;2755;50.728;7.108;2023-02-01T16:05:39;7.80;99.90
5466;DHT22;2755;50.728;7.108;2023-02-01T16:08:17;7.40;99.90
5466;DHT22;2755;50.728;7.108;2023-02-01T16:10:48;7.10;99.90
5466;DHT22;2755;50.728;7.108;2023-02-01T16:13:15;6.80;99.90
5466;DHT22;2755;50.728;7.108;2023-02-01T16:15:41;6.90;99.90
5466;DHT22;2755;50.728;7.108;2023-02-01T16:18:08;6.70;99.90
5466;DHT22;2755;50.728;7.108;2023-02-01T16:20:35;6.30;99.90
5466;DHT22;2755;50.728;7.108;2023-02-01T16:23:02;7.10;99.90
5466;DHT22;2755;50.728;7.108;2023-02-01T16:25:28;6.10;99.90
5466;DHT22;2755;50.728;7.108;2023-02-01T16:30:20;6.50;99.90
5466;DHT22;2755;50.728;7.108;2023-02-01T16:32:49;6.90;99.90
5466;DHT22;2755;50.728;7.108;2023-02-01T16:35:24;6.30;99.90
5466;DHT22;2755;50.728;7.108;2023-02-01T16:37:50;6.00;99.90
5466;DHT22;2755;50.728;7.108;2023-02-01T16:40:17;5.90;99.90
5466;DHT22;2755;50.728;7.108;2023-02-01T16:42:45;5.80;99.90
5466;DHT22;2755;50.728;7.108;2023-02-01T16:47:38;6.20;99.90
5466;DHT22;2755;50.728;7.108;2023-02-01T16:50:15;6.30;99.90
5466;DHT22;2755;50.728;7.108;2023-02-01T16:52:41;6.00;99.90
5466;DHT22;2755;50.728;7.108;2023-02-01T16:55:13;5.80;99.90
5466;DHT22;2755;50.728;7.108;2023-02-01T16:57:39;6.10;99.90
5466;DHT22;2755;50.728;7.108;2023-02-01T17:00:05;6.80;99.90
5466;DHT22;2755;50.728;7.108;2023-02-01T17:04:57;6.50;99.90
5466;DHT22;2755;50.728;7.108;2023-02-01T17:07:22;6.10;99.90
5466;DHT22;2755;50.728;7.108;2023-02-01T17:12:35;5.70;99.90
5466;DHT22;2755;50.728;7.108;2023-02-01T17:17:36;5.50;99.90
5466;DHT22;2755;50.728;7.108;2023-02-01T17:20:03;5.60;99.90
5466;DHT22;2755;50.728;7.108;2023-02-01T17:22:29;5.80;99.90
5466;DHT22;2755;50.728;7.108;2023-02-01T17:24:55;6.30;99.90
5466;DHT22;2755;50.728;7.108;2023-02-01T17:27:20;6.00;99.90
5466;DHT22;2755;50.728;7.108;2023-02-01T17:29:46;5.80;99.90
5466;DHT22;2755;50.728;7.108;2023-02-01T17:32:19;5.70;99.90
5466;DHT22;2755;50.728;7.108;2023-02-01T17:34:44;6.00;99.90
5466;DHT22;2755;50.728;7.108;2023-02-01T17:37:29;5.50;99.90
5466;DHT22;2755;50.728;7.108;2023-02-01T17:39:54;5.50;99.90
5466;DHT22;2755;50.728;7.108;2023-02-01T17:42:21;5.70;99.90
5466;DHT22;2755;50.728;7.108;2023-02-01T17:44:56;5.60;99.90
5466;DHT22;2755;50.728;7.108;2023-02-01T17:47:23;5.70;99.90
5466;DHT22;2755;50.728;7.108;2023-02-01T17:49:48;5.50;99.90
5466;DHT22;2755;50.728;7.108;2023-02-01T17:57:15;5.50;99.90
5466;DHT22;2755;50.728;7.108;2023-02-01T17:59:41;5.80;99.90
5466;DHT22;2755;50.728;7.108;2023-02-01T18:02:23;5.60;99.90
5466;DHT22;2755;50.728;7.108;2023-02-01T18:04:49;5.70;99.90
5466;DHT22;2755;50.728;7.108;2023-02-01T18:07:16;5.60;99.90
5466;DHT22;2755;50.728;7.108;2023-02-01T18:12:22;5.70;99.90
5466;DHT22;2755;50.728;7.108;2023-02-01T18:19:41;4.90;99.90
5466;DHT22;2755;50.728;7.108;2023-02-01T18:22:15;5.10;99.90
5466;DHT22;2755;50.728;7.108;2023-02-01T18:27:08;5.90;99.90
5466;DHT22;2755;50.728;7.108;2023-02-01T18:34:25;5.30;99.90
5466;DHT22;2755;50.728;7.108;2023-02-01T18:36:51;6.40;99.90
5466;DHT22;2755;50.728;7.108;2023-02-01T18:39:18;6.20;99.90
5466;DHT22;2755;50.728;7.108;2023-02-01T18:41:48;5.80;99.90
5466;DHT22;2755;50.728;7.108;2023-02-01T18:44:14;5.90;99.90
5466;DHT22;2755;50.728;7.108;2023-02-01T18:49:06;6.10;99.90
5466;DHT22;2755;50.728;7.108;2023-02-01T18:51:33;5.60;99.90
5466;DHT22;2755;50.728;7.108;2023-02-01T18:53:59;5.70;99.90
5466;DHT22;2755;50.728;7.108;2023-02-01T18:56:24;6.10;99.90
5466;DHT22;2755;50.728;7.108;2023-02-01T18:58:50;6.20;99.90
5466;DHT22;2755;50.728;7.108;2023-02-01T19:01:18;5.70;99.90
5466;DHT22;2755;50.728;7.108;2023-02-01T19:06:10;6.10;99.90
5466;DHT22;2755;50.728;7.108;2023-02-01T19:08:36;6.40;99.90
5466;DHT22;2755;50.728;7.108;2023-02-01T19:11:06;6.20;99.90
5466;DHT22;2755;50.728;7.108;2023-02-01T19:13:34;6.50;99.90
5466;DHT22;2755;50.728;7.108;2023-02-01T19:16:05;6.10;99.90
5466;DHT22;2755;50.728;7.108;2023-02-01T19:18:31;6.20;99.90
5466;DHT22;2755;50.728;7.108;2023-02-01T19:21:02;6.30;99.90
5466;DHT22;2755;50.728;7.108;2023-02-01T19:23:28;6.40;99.90
5466;DHT22;2755;50.728;7.108;2023-02-01T19:33:12;6.30;99.90
5466;DHT22;2755;50.728;7.108;2023-02-01T19:38:04;6.40;99.90
5466;DHT22;2755;50.728;7.108;2023-02-01T19:47:47;6.30;99.90
5466;DHT22;2755;50.728;7.108;2023-02-01T19:50:19;6.70;99.90
5466;DHT22;2755;50.728;7.108;2023-02-01T19:52:46;6.40;99.90
5466;DHT22;2755;50.728;7.108;2023-02-01T19:57:38;7.00;99.90
5466;DHT22;2755;50.728;7.108;2023-02-01T20:00:04;7.00;99.90
5466;DHT22;2755;50.728;7.108;2023-02-01T20:04:57;6.90;99.90
5466;DHT22;2755;50.728;7.108;2023-02-01T20:07:22;7.00;99.90
5466;DHT22;2755;50.728;7.108;2023-02-01T20:09:48;6.90;99.90
5466;DHT22;2755;50.728;7.108;2023-02-01T20:12:13;7.20;99.90
5466;DHT22;2755;50.728;7.108;2023-02-01T20:14:39;7.30;99.90
5466;DHT22;2755;50.728;7.108;2023-02-01T20:17:09;7.20;99.90
5466;DHT22;2755;50.728;7.108;2023-02-01T20:22:04;7.00;99.90
5466;DHT22;2755;50.728;7.108;2023-02-01T20:24:29;7.10;99.90
5466;DHT22;2755;50.728;7.108;2023-02-01T20:29:21;7.40;99.90
5466;DHT22;2755;50.728;7.108;2023-02-01T20:31:47;7.40;99.90
5466;DHT22;2755;50.728;7.108;2023-02-01T20:34:12;7.20;99.90
5466;DHT22;2755;50.728;7.108;2023-02-01T20:36:41;7.30;99.90
5466;DHT22;2755;50.728;7.108;2023-02-01T20:44:04;7.40;99.90
5466;DHT22;2755;50.728;7.108;2023-02-01T20:46:29;7.60;99.90
5466;DHT22;2755;50.728;7.108;2023-02-01T20:48:57;7.40;99.90
5466;DHT22;2755;50.728;7.108;2023-02-01T20:51:23;7.30;99.90
5466;DHT22;2755;50.728;7.108;2023-02-01T20:53:49;7.30;99.90
5466;DHT22;2755;50.728;7.108;2023-02-01T20:56:17;7.50;99.90
5466;DHT22;2755;50.728;7.108;2023-02-01T21:01:09;7.40;99.90
5466;DHT22;2755;50.728;7.108;2023-02-01T21:03:38;7.40;99.90
5466;DHT22;2755;50.728;7.108;2023-02-01T21:06:05;7.40;99.90
5466;DHT22;2755;50.728;7.108;2023-02-01T21:08:34;7.20;99.90
5466;DHT22;2755;50.728;7.108;2023-02-01T21:11:08;7.20;99.90
5466;DHT22;2755;50.728;7.108;2023-02-01T21:13:37;7.50;99.90
5466;DHT22;2755;50.728;7.108;2023-02-01T21:16:16;7.50;99.90
5466;DHT22;2755;50.728;7.108;2023-02-01T21:18:48;7.60;99.90
5466;DHT22;2755;50.728;7.108;2023-02-01T21:21:17;7.20;99.90
5466;DHT22;2755;50.728;7.108;2023-02-01T21:23:45;7.40;99.90
5466;DHT22;2755;50.728;7.108;2023-02-01T21:26:17;7.60;99.90
5466;DHT22;2755;50.728;7.108;2023-02-01T21:28:49;8.30;99.90
5466;DHT22;2755;50.728;7.108;2023-02-01T21:31:15;8.20;99.90
5466;DHT22;2755;50.728;7.108;2023-02-01T21:33:44;7.50;99.90
5466;DHT22;2755;50.728;7.108;2023-02-01T21:36:14;8.40;99.90
5466;DHT22;2755;50.728;7.108;2023-02-01T21:38:51;7.50;99.90
5466;DHT22;2755;50.728;7.108;2023-02-01T21:41:18;7.50;99.90